sensor_id;sensor_type;location;lat;lon;timestamp;pressure;altitude;pressure_sealevel;temperature;humidity
70921;BME280;58572;48.110;19.838;2023-02-22T00:00:14;97657.13;;;6.23;75.44
70921;BME280;58572;48.110;19.838;2023-02-22T00:02:49;97652.00;;;5.85;77.07
70921;BME280;58572;48.110;19.838;2023-02-22T00:05:17;97644.44;;;5.50;78.51
70921;BME280;58572;48.110;19.838;2023-02-22T00:07:46;97646.56;;;5.48;79.75
70921;BME280;58572;48.110;19.838;2023-02-22T00:10:13;97638.66;;;5.68;78.42
70921;BME280;58572;48.110;19.838;2023-02-22T00:12:41;97610.25;;;5.92;74.75
70921;BME280;58572;48.110;19.838;2023-02-22T00:15:10;97643.63;;;5.49;78.86
70921;BME280;58572;48.110;19.838;2023-02-22T00:17:38;97655.19;;;6.14;75.48
70921;BME280;58572;48.110;19.838;2023-02-22T00:20:07;97662.03;;;6.26;76.40
70921;BME280;58572;48.110;19.838;2023-02-22T00:22:34;97659.41;;;5.67;78.61
70921;BME280;58572;48.110;19.838;2023-02-22T00:25:02;97648.44;;;5.47;78.85
70921;BME280;58572;48.110;19.838;2023-02-22T00:27:29;97656.72;;;5.67;77.47
70921;BME280;58572;48.110;19.838;2023-02-22T00:29:56;97650.34;;;5.47;76.99
70921;BME280;58572;48.110;19.838;2023-02-22T00:32:25;97661.00;;;5.63;77.66
70921;BME280;58572;48.110;19.838;2023-02-22T00:34:52;97660.22;;;5.68;76.57
70921;BME280;58572;48.110;19.838;2023-02-22T00:37:20;97654.56;;;6.01;75.05
70921;BME280;58572;48.110;19.838;2023-02-22T00:39:47;97667.00;;;6.02;75.38
70921;BME280;58572;48.110;19.838;2023-02-22T00:42:15;97669.63;;;5.65;77.96
70921;BME280;58572;48.110;19.838;2023-02-22T00:44:43;97665.41;;;5.74;76.27
70921;BME280;58572;48.110;19.838;2023-02-22T00:47:10;97666.13;;;5.97;75.25
70921;BME280;58572;48.110;19.838;2023-02-22T00:49:40;97664.84;;;5.40;77.22
70921;BME280;58572;48.110;19.838;2023-02-22T00:52:07;97662.31;;;5.07;79.35
70921;BME280;58572;48.110;19.838;2023-02-22T00:54:34;97661.44;;;5.01;79.69
70921;BME280;58572;48.110;19.838;2023-02-22T00:57:02;97662.19;;;5.77;76.78
70921;BME280;58572;48.110;19.838;2023-02-22T00:59:29;97663.13;;;5.29;78.70
70921;BME280;58572;48.110;19.838;2023-02-22T01:01:56;97666.91;;;5.06;79.95
70921;BME280;58572;48.110;19.838;2023-02-22T09:46:59;97814.25;;;13.73;55.57
70921;BME280;58572;48.110;19.838;2023-02-22T09:49:28;97815.66;;;13.84;55.20
70921;BME280;58572;48.110;19.838;2023-02-22T09:52:02;97817.47;;;13.20;54.87
70921;BME280;58572;48.110;19.838;2023-02-22T09:54:33;97817.03;;;12.48;57.73
70921;BME280;58572;48.110;19.838;2023-02-22T09:57:05;97818.81;;;12.01;58.13
70921;BME280;58572;48.110;19.838;2023-02-22T09:59:39;97813.97;;;13.01;55.97
70921;BME280;58572;48.110;19.838;2023-02-22T10:02:20;97753.88;;;12.60;55.32
70921;BME280;58572;48.110;19.838;2023-02-22T10:04:54;97817.91;;;12.62;55.70
70921;BME280;58572;48.110;19.838;2023-02-22T10:07:32;97817.09;;;12.62;55.25
70921;BME280;58572;48.110;19.838;2023-02-22T10:10:02;97818.59;;;11.79;58.94
70921;BME280;58572;48.110;19.838;2023-02-22T10:12:37;97786.94;;;13.18;52.94
70921;BME280;58572;48.110;19.838;2023-02-22T10:15:36;97797.41;;;14.65;51.25
70921;BME280;58572;48.110;19.838;2023-02-22T10:18:47;97793.38;;;15.25;46.61
70921;BME280;58572;48.110;19.838;2023-02-22T10:21:19;97793.69;;;17.27;46.75
70921;BME280;58572;48.110;19.838;2023-02-22T10:23:55;97796.72;;;17.81;41.93
70921;BME280;58572;48.110;19.838;2023-02-22T10:26:29;97791.06;;;17.39;43.88
70921;BME280;58572;48.110;19.838;2023-02-22T10:29:02;97781.72;;;18.20;42.75
70921;BME280;58572;48.110;19.838;2023-02-22T10:31:33;97798.50;;;15.18;50.63
70921;BME280;58572;48.110;19.838;2023-02-22T10:34:10;97786.38;;;16.93;43.99
70921;BME280;58572;48.110;19.838;2023-02-22T10:36:38;97778.25;;;19.43;39.75
70921;BME280;58572;48.110;19.838;2023-02-22T10:39:15;97799.75;;;15.51;49.16
70921;BME280;58572;48.110;19.838;2023-02-22T10:41:48;97806.75;;;14.95;51.39
70921;BME280;58572;48.110;19.838;2023-02-22T10:44:17;97793.19;;;14.59;48.67
70921;BME280;58572;48.110;19.838;2023-02-22T10:46:45;97792.91;;;14.92;49.29
70921;BME280;58572;48.110;19.838;2023-02-22T10:49:18;97802.50;;;13.45;54.11
70921;BME280;58572;48.110;19.838;2023-02-22T10:51:47;97795.91;;;14.59;49.56
70921;BME280;58572;48.110;19.838;2023-02-22T10:54:25;97789.31;;;13.88;52.36
70921;BME280;58572;48.110;19.838;2023-02-22T10:56:55;97797.44;;;13.38;54.70
70921;BME280;58572;48.110;19.838;2023-02-22T10:59:30;97796.75;;;12.87;52.14
70921;BME280;58572;48.110;19.838;2023-02-22T11:01:59;97784.66;;;12.93;50.94
70921;BME280;58572;48.110;19.838;2023-02-22T11:04:43;97783.84;;;13.88;52.91
70921;BME280;58572;48.110;19.838;2023-02-22T11:07:19;97789.31;;;13.06;54.37
70921;BME280;58572;48.110;19.838;2023-02-22T11:09:49;97782.59;;;12.71;51.79
70921;BME280;58572;48.110;19.838;2023-02-22T11:12:20;97779.13;;;13.25;51.42
70921;BME280;58572;48.110;19.838;2023-02-22T11:14:47;97773.72;;;12.93;51.84
70921;BME280;58572;48.110;19.838;2023-02-22T11:17:27;97734.53;;;11.06;53.50
70921;BME280;58572;48.110;19.838;2023-02-22T11:20:01;97778.31;;;12.65;55.03
70921;BME280;58572;48.110;19.838;2023-02-22T11:22:34;97772.63;;;12.94;53.76
70921;BME280;58572;48.110;19.838;2023-02-22T11:25:05;97751.78;;;12.70;55.02
70921;BME280;58572;48.110;19.838;2023-02-22T11:27:36;97707.03;;;12.06;52.44
70921;BME280;58572;48.110;19.838;2023-02-22T11:30:16;97773.75;;;11.90;53.18
70921;BME280;58572;48.110;19.838;2023-02-22T11:32:46;97760.88;;;13.89;51.74
70921;BME280;58572;48.110;19.838;2023-02-22T11:35:36;97752.13;;;15.61;49.64
70921;BME280;58572;48.110;19.838;2023-02-22T11:38:18;97750.72;;;16.07;47.53
70921;BME280;58572;48.110;19.838;2023-02-22T11:41:04;97759.56;;;13.87;52.55
70921;BME280;58572;48.110;19.838;2023-02-22T11:43:32;97665.59;;;13.10;51.89
70921;BME280;58572;48.110;19.838;2023-02-22T11:46:02;97755.19;;;13.22;53.99
70921;BME280;58572;48.110;19.838;2023-02-22T11:48:32;97752.81;;;13.16;53.91
70921;BME280;58572;48.110;19.838;2023-02-22T11:51:11;97758.47;;;12.92;51.68
70921;BME280;58572;48.110;19.838;2023-02-22T11:53:52;97762.22;;;11.56;52.70
70921;BME280;58572;48.110;19.838;2023-02-22T11:56:28;97751.34;;;12.63;53.20
70921;BME280;58572;48.110;19.838;2023-02-22T11:59:02;97752.25;;;12.07;51.28
70921;BME280;58572;48.110;19.838;2023-02-22T12:01:38;97754.19;;;11.88;52.54
70921;BME280;58572;48.110;19.838;2023-02-22T12:04:22;97753.53;;;12.29;51.87
70921;BME280;58572;48.110;19.838;2023-02-22T12:07:08;97735.44;;;13.39;50.13
70921;BME280;58572;48.110;19.838;2023-02-22T12:09:43;97739.56;;;13.78;49.97
70921;BME280;58572;48.110;19.838;2023-02-22T12:12:19;97726.13;;;14.26;50.41
70921;BME280;58572;48.110;19.838;2023-02-22T12:14:54;97740.03;;;12.37;51.08
70921;BME280;58572;48.110;19.838;2023-02-22T12:17:41;97725.25;;;13.17;52.71
70921;BME280;58572;48.110;19.838;2023-02-22T12:20:17;97725.84;;;13.55;53.76
70921;BME280;58572;48.110;19.838;2023-02-22T12:22:52;97731.09;;;13.10;54.17
70921;BME280;58572;48.110;19.838;2023-02-22T12:25:24;97694.09;;;12.91;53.74
70921;BME280;58572;48.110;19.838;2023-02-22T12:27:56;97728.44;;;12.64;53.88
70921;BME280;58572;48.110;19.838;2023-02-22T12:30:27;97719.75;;;12.90;52.50
70921;BME280;58572;48.110;19.838;2023-02-22T12:32:58;97727.66;;;13.32;52.91
70921;BME280;58572;48.110;19.838;2023-02-22T12:35:27;97723.78;;;12.78;54.38
70921;BME280;58572;48.110;19.838;2023-02-22T12:38:04;97720.16;;;13.10;51.65
70921;BME280;58572;48.110;19.838;2023-02-22T12:40:40;97720.34;;;12.73;52.81
70921;BME280;58572;48.110;19.838;2023-02-22T12:43:15;97719.00;;;13.17;51.41
70921;BME280;58572;48.110;19.838;2023-02-22T12:45:49;97703.38;;;12.76;54.55
70921;BME280;58572;48.110;19.838;2023-02-22T12:48:25;97708.75;;;13.86;50.33
70921;BME280;58572;48.110;19.838;2023-02-22T12:50:58;97707.81;;;13.68;52.55
70921;BME280;58572;48.110;19.838;2023-02-22T12:53:34;97716.75;;;13.19;53.11
70921;BME280;58572;48.110;19.838;2023-02-22T12:56:15;97728.81;;;11.69;54.25
70921;BME280;58572;48.110;19.838;2023-02-22T12:58:47;97671.25;;;12.59;54.44
70921;BME280;58572;48.110;19.838;2023-02-22T13:01:17;97712.78;;;12.37;54.82
70921;BME280;58572;48.110;19.838;2023-02-22T13:03:46;97711.28;;;12.45;55.27
70921;BME280;58572;48.110;19.838;2023-02-22T13:06:27;97709.16;;;12.42;52.90
70921;BME280;58572;48.110;19.838;2023-02-22T13:09:07;97715.72;;;12.41;55.20
70921;BME280;58572;48.110;19.838;2023-02-22T13:11:42;97713.88;;;12.55;55.22
70921;BME280;58572;48.110;19.838;2023-02-22T13:14:31;97722.72;;;12.14;55.95
70921;BME280;58572;48.110;19.838;2023-02-22T13:17:04;97718.53;;;12.36;52.88
70921;BME280;58572;48.110;19.838;2023-02-22T13:19:39;97664.28;;;11.50;53.18
70921;BME280;58572;48.110;19.838;2023-02-22T13:22:14;97720.56;;;12.44;53.83
70921;BME280;58572;48.110;19.838;2023-02-22T13:24:51;97709.28;;;13.24;53.76
70921;BME280;58572;48.110;19.838;2023-02-22T13:27:24;97715.00;;;12.82;53.99
70921;BME280;58572;48.110;19.838;2023-02-22T13:29:56;97705.22;;;13.08;53.47
70921;BME280;58572;48.110;19.838;2023-02-22T13:32:37;97711.28;;;13.05;52.64
70921;BME280;58572;48.110;19.838;2023-02-22T13:35:19;97714.22;;;13.22;52.16
70921;BME280;58572;48.110;19.838;2023-02-22T13:41:10;97710.16;;;12.78;54.68
70921;BME280;58572;48.110;19.838;2023-02-22T13:43:59;97713.91;;;13.10;54.51
70921;BME280;58572;48.110;19.838;2023-02-22T13:49:46;97697.81;;;12.21;55.62
70921;BME280;58572;48.110;19.838;2023-02-22T13:52:21;97685.50;;;11.91;55.66
70921;BME280;58572;48.110;19.838;2023-02-22T13:54:51;97709.88;;;12.94;54.52
70921;BME280;58572;48.110;19.838;2023-02-22T13:57:24;97721.94;;;12.28;54.77
70921;BME280;58572;48.110;19.838;2023-02-22T14:00:18;97713.19;;;12.91;51.72
70921;BME280;58572;48.110;19.838;2023-02-22T14:03:02;97714.28;;;12.62;53.95
70921;BME280;58572;48.110;19.838;2023-02-22T14:05:35;97719.72;;;11.78;56.05
70921;BME280;58572;48.110;19.838;2023-02-22T14:08:03;97716.84;;;13.00;52.93
70921;BME280;58572;48.110;19.838;2023-02-22T14:13:18;97726.38;;;12.24;53.43
70921;BME280;58572;48.110;19.838;2023-02-22T14:16:18;97720.69;;;13.26;51.69
70921;BME280;58572;48.110;19.838;2023-02-22T14:18:48;97665.19;;;12.62;52.06
70921;BME280;58572;48.110;19.838;2023-02-22T14:21:17;97716.97;;;13.22;50.91
70921;BME280;58572;48.110;19.838;2023-02-22T14:23:46;97714.66;;;13.79;52.03
70921;BME280;58572;48.110;19.838;2023-02-22T14:26:16;97721.69;;;12.43;51.42
70921;BME280;58572;48.110;19.838;2023-02-22T14:28:51;97727.31;;;12.33;51.27
70921;BME280;58572;48.110;19.838;2023-02-22T14:31:21;97716.03;;;12.39;54.72
70921;BME280;58572;48.110;19.838;2023-02-22T14:33:58;97715.31;;;12.94;51.93
70921;BME280;58572;48.110;19.838;2023-02-22T14:36:30;97724.41;;;13.03;53.66
70921;BME280;58572;48.110;19.838;2023-02-22T14:39:13;97735.94;;;12.86;53.42
70921;BME280;58572;48.110;19.838;2023-02-22T14:41:46;97718.31;;;12.51;53.83
70921;BME280;58572;48.110;19.838;2023-02-22T14:44:22;97720.44;;;12.35;53.74
70921;BME280;58572;48.110;19.838;2023-02-22T14:46:51;97709.94;;;12.29;53.79
70921;BME280;58572;48.110;19.838;2023-02-22T14:49:22;97678.94;;;11.92;53.98
70921;BME280;58572;48.110;19.838;2023-02-22T14:51:56;97721.91;;;13.34;51.81
70921;BME280;58572;48.110;19.838;2023-02-22T14:54:31;97720.38;;;12.87;50.73
70921;BME280;58572;48.110;19.838;2023-02-22T14:57:08;97713.88;;;12.69;54.23
70921;BME280;58572;48.110;19.838;2023-02-22T14:59:51;97713.19;;;13.04;53.26
70921;BME280;58572;48.110;19.838;2023-02-22T15:02:22;97718.16;;;13.16;51.77
70921;BME280;58572;48.110;19.838;2023-02-22T15:04:50;97721.78;;;12.98;53.46
70921;BME280;58572;48.110;19.838;2023-02-22T15:07:24;97718.34;;;12.78;52.71
70921;BME280;58572;48.110;19.838;2023-02-22T15:10:13;97716.19;;;12.29;52.86
70921;BME280;58572;48.110;19.838;2023-02-22T15:12:50;97726.03;;;11.74;55.64
70921;BME280;58572;48.110;19.838;2023-02-22T15:15:21;97689.66;;;12.02;54.18
70921;BME280;58572;48.110;19.838;2023-02-22T15:17:53;97714.66;;;12.23;54.39
70921;BME280;58572;48.110;19.838;2023-02-22T15:20:22;97711.22;;;12.50;53.88
70921;BME280;58572;48.110;19.838;2023-02-22T15:22:51;97723.00;;;11.57;55.48
70921;BME280;58572;48.110;19.838;2023-02-22T15:25:26;97718.16;;;12.10;54.34
70921;BME280;58572;48.110;19.838;2023-02-22T15:27:59;97718.81;;;11.45;55.60
70921;BME280;58572;48.110;19.838;2023-02-22T15:30:30;97714.03;;;10.90;57.47
70921;BME280;58572;48.110;19.838;2023-02-22T15:33:13;97718.66;;;10.65;59.05
70921;BME280;58572;48.110;19.838;2023-02-22T15:35:41;97714.00;;;11.80;57.47
70921;BME280;58572;48.110;19.838;2023-02-22T15:38:18;97724.50;;;10.77;59.26
70921;BME280;58572;48.110;19.838;2023-02-22T15:40:57;97723.38;;;10.54;60.04
70921;BME280;58572;48.110;19.838;2023-02-22T15:43:25;97727.78;;;10.11;62.24
70921;BME280;58572;48.110;19.838;2023-02-22T15:45:57;97720.28;;;11.57;57.63
70921;BME280;58572;48.110;19.838;2023-02-22T15:48:25;97731.41;;;10.36;61.25
70921;BME280;58572;48.110;19.838;2023-02-22T15:51:02;97733.84;;;9.64;62.74
70921;BME280;58572;48.110;19.838;2023-02-22T15:53:39;97726.41;;;10.53;60.03
70921;BME280;58572;48.110;19.838;2023-02-22T15:56:11;97723.78;;;10.38;62.17
70921;BME280;58572;48.110;19.838;2023-02-22T15:58:40;97731.75;;;9.51;64.92
70921;BME280;58572;48.110;19.838;2023-02-22T16:01:11;97732.16;;;9.19;64.80
70921;BME280;58572;48.110;19.838;2023-02-22T16:03:42;97732.00;;;8.90;65.00
70921;BME280;58572;48.110;19.838;2023-02-22T16:06:19;97736.88;;;8.88;65.50
70921;BME280;58572;48.110;19.838;2023-02-22T16:08:50;97739.97;;;8.41;67.48
70921;BME280;58572;48.110;19.838;2023-02-22T16:11:22;97740.72;;;8.67;66.11
70921;BME280;58572;48.110;19.838;2023-02-22T16:13:56;97736.56;;;9.64;62.84
70921;BME280;58572;48.110;19.838;2023-02-22T16:16:29;97741.59;;;8.42;66.25
70921;BME280;58572;48.110;19.838;2023-02-22T16:19:31;97745.34;;;8.66;66.06
70921;BME280;58572;48.110;19.838;2023-02-22T16:22:00;97737.78;;;8.38;66.23
70921;BME280;58572;48.110;19.838;2023-02-22T16:24:30;97752.91;;;7.98;68.04
70921;BME280;58572;48.110;19.838;2023-02-22T16:27:05;97753.97;;;7.72;69.02
70921;BME280;58572;48.110;19.838;2023-02-22T16:29:32;97757.16;;;7.48;69.39
70921;BME280;58572;48.110;19.838;2023-02-22T16:32:00;97757.72;;;7.50;69.48
70921;BME280;58572;48.110;19.838;2023-02-22T16:34:28;97763.63;;;7.42;68.71
70921;BME280;58572;48.110;19.838;2023-02-22T16:36:55;97763.44;;;7.01;70.16
70921;BME280;58572;48.110;19.838;2023-02-22T16:39:24;97761.97;;;7.31;69.53
70921;BME280;58572;48.110;19.838;2023-02-22T16:41:53;97761.31;;;7.09;69.55
70921;BME280;58572;48.110;19.838;2023-02-22T16:44:20;97765.31;;;6.96;70.45
70921;BME280;58572;48.110;19.838;2023-02-22T16:46:49;97773.16;;;6.97;70.94
70921;BME280;58572;48.110;19.838;2023-02-22T16:49:18;97773.34;;;6.81;70.60
70921;BME280;58572;48.110;19.838;2023-02-22T16:51:49;97771.94;;;6.73;70.72
70921;BME280;58572;48.110;19.838;2023-02-22T16:54:22;97777.94;;;6.80;70.49
70921;BME280;58572;48.110;19.838;2023-02-22T16:56:52;97748.69;;;6.67;70.78
70921;BME280;58572;48.110;19.838;2023-02-22T16:59:20;97771.44;;;6.81;71.27
70921;BME280;58572;48.110;19.838;2023-02-22T17:01:48;97774.09;;;6.71;71.24
70921;BME280;58572;48.110;19.838;2023-02-22T17:04:16;97671.53;;;5.97;71.08
70921;BME280;58572;48.110;19.838;2023-02-22T17:06:46;97720.03;;;6.24;71.43
70921;BME280;58572;48.110;19.838;2023-02-22T17:09:13;97693.22;;;6.12;71.52
70921;BME280;58572;48.110;19.838;2023-02-22T17:11:40;97780.72;;;6.48;71.59
70921;BME280;58572;48.110;19.838;2023-02-22T17:14:09;97771.31;;;6.56;70.83
70921;BME280;58572;48.110;19.838;2023-02-22T17:16:36;97771.00;;;6.52;70.51
70921;BME280;58572;48.110;19.838;2023-02-22T17:19:07;97694.88;;;6.18;70.31
70921;BME280;58572;48.110;19.838;2023-02-22T17:21:35;97727.38;;;6.28;69.90
70921;BME280;58572;48.110;19.838;2023-02-22T17:24:04;97782.00;;;6.40;71.31
70921;BME280;58572;48.110;19.838;2023-02-22T17:26:31;97775.00;;;6.45;70.93
70921;BME280;58572;48.110;19.838;2023-02-22T17:28:58;97778.53;;;6.45;70.80
70921;BME280;58572;48.110;19.838;2023-02-22T17:31:29;97802.06;;;6.50;70.91
70921;BME280;58572;48.110;19.838;2023-02-22T17:33:59;97780.75;;;6.21;72.01
70921;BME280;58572;48.110;19.838;2023-02-22T17:36:27;97783.19;;;6.23;72.01
70921;BME280;58572;48.110;19.838;2023-02-22T17:38:54;97704.13;;;5.90;71.70
70921;BME280;58572;48.110;19.838;2023-02-22T17:41:23;97786.84;;;6.38;72.05
70921;BME280;58572;48.110;19.838;2023-02-22T17:43:50;97780.72;;;6.48;71.24
70921;BME280;58572;48.110;19.838;2023-02-22T17:46:18;97705.91;;;6.12;71.04
70921;BME280;58572;48.110;19.838;2023-02-22T17:48:45;97783.28;;;6.70;71.14
70921;BME280;58572;48.110;19.838;2023-02-22T17:51:13;97757.13;;;6.81;69.64
70921;BME280;58572;48.110;19.838;2023-02-22T17:53:40;97769.72;;;7.12;69.72
70921;BME280;58572;48.110;19.838;2023-02-22T17:56:09;97766.31;;;7.32;69.10
70921;BME280;58572;48.110;19.838;2023-02-22T17:58:39;97777.03;;;7.17;69.73
70921;BME280;58572;48.110;19.838;2023-02-22T18:01:17;97776.66;;;7.55;67.82
70921;BME280;58572;48.110;19.838;2023-02-22T18:03:44;97778.81;;;7.58;67.29
70921;BME280;58572;48.110;19.838;2023-02-22T18:06:15;97779.19;;;7.15;69.66
70921;BME280;58572;48.110;19.838;2023-02-22T18:08:42;97776.72;;;7.08;69.67
70921;BME280;58572;48.110;19.838;2023-02-22T18:11:10;97777.41;;;7.41;69.12
70921;BME280;58572;48.110;19.838;2023-02-22T18:13:39;97774.25;;;7.01;70.36
70921;BME280;58572;48.110;19.838;2023-02-22T18:16:06;97729.00;;;6.77;70.28
70921;BME280;58572;48.110;19.838;2023-02-22T18:18:34;97775.97;;;7.23;70.40
70921;BME280;58572;48.110;19.838;2023-02-22T18:21:01;97768.47;;;7.35;69.45
70921;BME280;58572;48.110;19.838;2023-02-22T18:23:31;97779.44;;;7.13;69.45
70921;BME280;58572;48.110;19.838;2023-02-22T18:25:59;97670.34;;;6.67;68.56
70921;BME280;58572;48.110;19.838;2023-02-22T18:28:26;97777.59;;;7.19;69.43
70921;BME280;58572;48.110;19.838;2023-02-22T18:30:57;97778.47;;;7.34;69.16
70921;BME280;58572;48.110;19.838;2023-02-22T18:33:25;97772.59;;;7.53;68.54
70921;BME280;58572;48.110;19.838;2023-02-22T18:35:52;97770.22;;;7.92;66.64
70921;BME280;58572;48.110;19.838;2023-02-22T18:38:20;97777.22;;;7.67;68.48
70921;BME280;58572;48.110;19.838;2023-02-22T18:40:58;97768.25;;;7.47;68.68
70921;BME280;58572;48.110;19.838;2023-02-22T18:43:25;97765.25;;;7.43;69.37
70921;BME280;58572;48.110;19.838;2023-02-22T18:45:52;97774.72;;;6.88;70.78
70921;BME280;58572;48.110;19.838;2023-02-22T18:48:21;97771.50;;;6.91;71.15
70921;BME280;58572;48.110;19.838;2023-02-22T18:50:48;97770.16;;;6.89;71.13
70921;BME280;58572;48.110;19.838;2023-02-22T18:53:15;97712.94;;;6.50;70.24
70921;BME280;58572;48.110;19.838;2023-02-22T18:55:42;97769.91;;;6.95;69.67
70921;BME280;58572;48.110;19.838;2023-02-22T18:58:09;97769.28;;;6.78;70.69
70921;BME280;58572;48.110;19.838;2023-02-22T19:00:36;97767.38;;;6.73;70.40
70921;BME280;58572;48.110;19.838;2023-02-22T19:03:03;97776.03;;;6.76;70.34
70921;BME280;58572;48.110;19.838;2023-02-22T19:05:34;97770.75;;;6.54;70.96
70921;BME280;58572;48.110;19.838;2023-02-22T19:08:01;97777.13;;;6.37;71.10
70921;BME280;58572;48.110;19.838;2023-02-22T19:10:35;97719.19;;;6.18;70.63
70921;BME280;58572;48.110;19.838;2023-02-22T19:13:02;97765.13;;;7.18;68.92
70921;BME280;58572;48.110;19.838;2023-02-22T19:15:35;97768.41;;;7.25;66.09
70921;BME280;58572;48.110;19.838;2023-02-22T19:18:03;97766.84;;;7.29;67.32
70921;BME280;58572;48.110;19.838;2023-02-22T19:20:30;97775.59;;;6.52;69.59
70921;BME280;58572;48.110;19.838;2023-02-22T19:23:00;97765.22;;;6.76;68.42
70921;BME280;58572;48.110;19.838;2023-02-22T19:25:27;97759.88;;;6.86;68.33
70921;BME280;58572;48.110;19.838;2023-02-22T19:27:54;97770.91;;;6.79;68.88
70921;BME280;58572;48.110;19.838;2023-02-22T19:30:23;97694.81;;;7.02;66.62
70921;BME280;58572;48.110;19.838;2023-02-22T19:32:50;97771.94;;;6.73;69.11
70921;BME280;58572;48.110;19.838;2023-02-22T19:35:17;97774.69;;;6.78;68.80
70921;BME280;58572;48.110;19.838;2023-02-22T19:37:53;97747.53;;;6.53;68.42
70921;BME280;58572;48.110;19.838;2023-02-22T19:40:21;97778.06;;;6.58;69.53
70921;BME280;58572;48.110;19.838;2023-02-22T19:42:49;97773.91;;;6.88;67.96
70921;BME280;58572;48.110;19.838;2023-02-22T19:45:17;97774.03;;;7.13;67.44
70921;BME280;58572;48.110;19.838;2023-02-22T19:47:45;97773.09;;;6.87;67.86
70921;BME280;58572;48.110;19.838;2023-02-22T19:50:13;97774.81;;;7.03;67.40
70921;BME280;58572;48.110;19.838;2023-02-22T19:52:40;97776.56;;;6.35;69.09
70921;BME280;58572;48.110;19.838;2023-02-22T19:55:07;97783.41;;;6.16;69.07
70921;BME280;58572;48.110;19.838;2023-02-22T19:57:39;97785.28;;;5.89;70.72
70921;BME280;58572;48.110;19.838;2023-02-22T20:00:06;97781.22;;;6.13;69.46
70921;BME280;58572;48.110;19.838;2023-02-22T20:02:37;97716.16;;;5.51;70.07
70921;BME280;58572;48.110;19.838;2023-02-22T20:05:05;97782.81;;;5.82;70.88
70921;BME280;58572;48.110;19.838;2023-02-22T20:07:34;97786.47;;;5.98;69.92
70921;BME280;58572;48.110;19.838;2023-02-22T20:10:02;97785.53;;;5.60;71.90
70921;BME280;58572;48.110;19.838;2023-02-22T20:12:30;97674.69;;;4.59;72.33
70921;BME280;58572;48.110;19.838;2023-02-22T20:14:59;97781.41;;;4.87;74.01
70921;BME280;58572;48.110;19.838;2023-02-22T20:17:26;97780.97;;;4.95;73.53
70921;BME280;58572;48.110;19.838;2023-02-22T20:19:53;97790.06;;;5.11;73.50
70921;BME280;58572;48.110;19.838;2023-02-22T20:22:21;97783.31;;;5.08;73.24
70921;BME280;58572;48.110;19.838;2023-02-22T20:24:48;97788.91;;;5.72;71.29
70921;BME280;58572;48.110;19.838;2023-02-22T20:27:17;97786.22;;;5.24;72.46
70921;BME280;58572;48.110;19.838;2023-02-22T20:29:44;97790.56;;;4.86;73.92
70921;BME280;58572;48.110;19.838;2023-02-22T20:32:13;97788.94;;;4.85;74.17
70921;BME280;58572;48.110;19.838;2023-02-22T20:34:44;97792.56;;;4.74;74.45
70921;BME280;58572;48.110;19.838;2023-02-22T20:37:11;97664.22;;;3.69;74.85
70921;BME280;58572;48.110;19.838;2023-02-22T20:39:39;97789.88;;;4.96;73.51
70921;BME280;58572;48.110;19.838;2023-02-22T20:42:06;97786.81;;;5.09;72.85
70921;BME280;58572;48.110;19.838;2023-02-22T20:44:35;97793.44;;;5.01;73.14
70921;BME280;58572;48.110;19.838;2023-02-22T20:47:02;97797.34;;;5.10;72.40
70921;BME280;58572;48.110;19.838;2023-02-22T20:49:31;97804.13;;;5.35;71.42
70921;BME280;58572;48.110;19.838;2023-02-22T20:51:58;97804.72;;;4.98;72.92
70921;BME280;58572;48.110;19.838;2023-02-22T20:54:25;97765.31;;;4.70;73.62
70921;BME280;58572;48.110;19.838;2023-02-22T20:56:52;97798.41;;;4.88;73.43
70921;BME280;58572;48.110;19.838;2023-02-22T20:59:19;97758.75;;;4.83;72.77
70921;BME280;58572;48.110;19.838;2023-02-22T21:01:46;97803.59;;;4.94;73.49
70921;BME280;58572;48.110;19.838;2023-02-22T21:04:14;97800.69;;;5.39;71.56
70921;BME280;58572;48.110;19.838;2023-02-22T21:06:43;97797.97;;;6.47;67.41
70921;BME280;58572;48.110;19.838;2023-02-22T21:09:12;97797.28;;;6.62;67.31
70921;BME280;58572;48.110;19.838;2023-02-22T21:11:40;97806.19;;;6.25;67.88
70921;BME280;58572;48.110;19.838;2023-02-22T21:14:09;97809.28;;;6.12;68.73
70921;BME280;58572;48.110;19.838;2023-02-22T21:16:37;97809.94;;;4.66;72.95
70921;BME280;58572;48.110;19.838;2023-02-22T21:19:05;97803.88;;;5.58;70.94
70921;BME280;58572;48.110;19.838;2023-02-22T21:21:34;97797.09;;;5.83;68.89
70921;BME280;58572;48.110;19.838;2023-02-22T21:24:03;97790.69;;;6.48;67.39
70921;BME280;58572;48.110;19.838;2023-02-22T21:26:32;97739.56;;;5.01;69.49
70921;BME280;58572;48.110;19.838;2023-02-22T21:29:01;97751.47;;;5.05;71.25
70921;BME280;58572;48.110;19.838;2023-02-22T21:31:30;97800.34;;;4.92;72.38
70921;BME280;58572;48.110;19.838;2023-02-22T21:33:58;97743.59;;;4.38;73.91
70921;BME280;58572;48.110;19.838;2023-02-22T21:36:25;97805.09;;;4.85;73.67
70921;BME280;58572;48.110;19.838;2023-02-22T21:38:55;97800.44;;;4.80;73.81
70921;BME280;58572;48.110;19.838;2023-02-22T21:41:25;97803.97;;;4.81;74.67
70921;BME280;58572;48.110;19.838;2023-02-22T21:43:54;97805.72;;;4.92;74.27
70921;BME280;58572;48.110;19.838;2023-02-22T21:46:22;97714.13;;;4.48;73.62
70921;BME280;58572;48.110;19.838;2023-02-22T21:48:49;97803.78;;;5.26;73.58
70921;BME280;58572;48.110;19.838;2023-02-22T21:51:18;97798.25;;;5.38;72.55
70921;BME280;58572;48.110;19.838;2023-02-22T21:53:47;97731.06;;;5.09;72.94
70921;BME280;58572;48.110;19.838;2023-02-22T21:56:17;97807.63;;;5.57;72.86
70921;BME280;58572;48.110;19.838;2023-02-22T21:58:47;97800.59;;;5.56;72.88
70921;BME280;58572;48.110;19.838;2023-02-22T22:01:15;97802.94;;;5.96;70.79
70921;BME280;58572;48.110;19.838;2023-02-22T22:03:43;97809.09;;;5.92;71.63
70921;BME280;58572;48.110;19.838;2023-02-22T22:06:11;97761.94;;;5.72;71.92
70921;BME280;58572;48.110;19.838;2023-02-22T22:08:39;97804.50;;;5.92;71.59